Accueil
METAR-TAF:

METAR-TAF

Aéroports :

Aéroport international de Tachkent

Tachkent, Ouzbékistan

latitude: 41-16N, longitude: 069-16E, altitude: 489 m

Observation

Le bulletin a été fait il y a 34 minutes, à 01:30 UTC
Vent calme
Température 0°C
Humidité 86%
Pression 1027 hPa
Visibilité: 3000 m
brume

METAR: UTTT 120130Z 00000KT 3000 BR NSC M00/M02 Q1027 R08R/CLRD70 NOSIG

Heure: 07:04 (02:04 UTC)

Prévision

Le bulletin a été fait il y a 3 heures et 4 minutes, à 23:00 UTC
Prévision valable du 12 à 00 UTC au 12 à 24 UTC
Vent 8 kt de est
Visibilité: 6000 m
Temporairement
du 12 à 00 UTC au 12 à 04 UTC
Visibilité: 1500 m
brume, fumée

TAF: UTTT 112300Z 1200/1224 09008KT 6000 NSC TEMPO 1200/1204 1500 BR FU

Observations et prévisions météorologiques de plus de 4000 aéroports (messages METAR et TAF).

Les stations disponibles sont représentées par des disques jaunes et rouges sur la carte.

Passer la souris dessus pour voir le nom de la station.

Cliquer dessus pour voir les observations et prévisions météorologiques.

Pour changer de carte: cliquez sur les boutons verts avec une croix noire pour zoomer, sur le bouton vert avec un tiret pour effectuer un zoom arrière, ou sur les flèches vertes pour les cartes adjacentes.


METAR-TAF: